sensor_id;sensor_type;location;lat;lon;timestamp;P1;durP1;ratioP1;P2;durP2;ratioP2
37867;SDS011;24011;48.880;9.190;2023-01-13T00:02:46;0.10;;;0.10;;
37867;SDS011;24011;48.880;9.190;2023-01-13T00:10:04;0.15;;;0.15;;
37867;SDS011;24011;48.880;9.190;2023-01-13T00:13:33;0.20;;;0.20;;
37867;SDS011;24011;48.880;9.190;2023-01-13T00:16:58;0.20;;;0.20;;
37867;SDS011;24011;48.880;9.190;2023-01-13T00:20:34;0.30;;;0.30;;
37867;SDS011;24011;48.880;9.190;2023-01-13T00:28:34;0.25;;;0.25;;
37867;SDS011;24011;48.880;9.190;2023-01-13T00:32:16;0.10;;;0.10;;
37867;SDS011;24011;48.880;9.190;2023-01-13T00:36:10;0.10;;;0.10;;
37867;SDS011;24011;48.880;9.190;2023-01-13T00:40:22;0.20;;;0.20;;
37867;SDS011;24011;48.880;9.190;2023-01-13T00:53:15;1.27;;;0.13;;
37867;SDS011;24011;48.880;9.190;2023-01-13T00:56:39;0.20;;;0.20;;
37867;SDS011;24011;48.880;9.190;2023-01-13T01:00:05;0.13;;;0.13;;
37867;SDS011;24011;48.880;9.190;2023-01-13T01:03:17;0.15;;;0.15;;
37867;SDS011;24011;48.880;9.190;2023-01-13T01:06:41;0.10;;;0.10;;
37867;SDS011;24011;48.880;9.190;2023-01-13T01:10:09;0.25;;;0.25;;
37867;SDS011;24011;48.880;9.190;2023-01-13T01:13:35;0.20;;;0.20;;
37867;SDS011;24011;48.880;9.190;2023-01-13T01:16:57;0.10;;;0.10;;
37867;SDS011;24011;48.880;9.190;2023-01-13T01:20:27;0.20;;;0.20;;
37867;SDS011;24011;48.880;9.190;2023-01-13T01:23:51;0.20;;;0.20;;
37867;SDS011;24011;48.880;9.190;2023-01-13T01:27:35;0.10;;;0.10;;
37867;SDS011;24011;48.880;9.190;2023-01-13T01:31:11;0.20;;;0.20;;
37867;SDS011;24011;48.880;9.190;2023-01-13T01:34:45;0.20;;;0.20;;
37867;SDS011;24011;48.880;9.190;2023-01-13T01:37:49;0.10;;;0.10;;
37867;SDS011;24011;48.880;9.190;2023-01-13T01:40:55;0.10;;;0.10;;
37867;SDS011;24011;48.880;9.190;2023-01-13T01:44:04;0.20;;;0.20;;
37867;SDS011;24011;48.880;9.190;2023-01-13T01:47:23;0.13;;;0.10;;
37867;SDS011;24011;48.880;9.190;2023-01-13T01:50:29;0.15;;;0.15;;
37867;SDS011;24011;48.880;9.190;2023-01-13T01:53:37;0.20;;;0.20;;
37867;SDS011;24011;48.880;9.190;2023-01-13T01:56:43;0.25;;;0.25;;
37867;SDS011;24011;48.880;9.190;2023-01-13T01:59:51;0.10;;;0.10;;
37867;SDS011;24011;48.880;9.190;2023-01-13T02:02:57;0.20;;;0.20;;
37867;SDS011;24011;48.880;9.190;2023-01-13T02:05:59;0.20;;;0.20;;
37867;SDS011;24011;48.880;9.190;2023-01-13T02:09:07;0.20;;;0.20;;
37867;SDS011;24011;48.880;9.190;2023-01-13T02:12:09;0.10;;;0.10;;
37867;SDS011;24011;48.880;9.190;2023-01-13T02:18:44;0.10;;;0.10;;
37867;SDS011;24011;48.880;9.190;2023-01-13T02:22:06;0.17;;;0.17;;
37867;SDS011;24011;48.880;9.190;2023-01-13T02:25:26;0.10;;;0.10;;
37867;SDS011;24011;48.880;9.190;2023-01-13T02:28:49;0.13;;;0.13;;
37867;SDS011;24011;48.880;9.190;2023-01-13T02:32:14;0.10;;;0.10;;
37867;SDS011;24011;48.880;9.190;2023-01-13T02:35:25;0.17;;;0.10;;
37867;SDS011;24011;48.880;9.190;2023-01-13T02:38:30;0.10;;;0.10;;
37867;SDS011;24011;48.880;9.190;2023-01-13T02:41:43;0.20;;;0.20;;
37867;SDS011;24011;48.880;9.190;2023-01-13T02:44:59;0.10;;;0.10;;
37867;SDS011;24011;48.880;9.190;2023-01-13T02:48:14;0.10;;;0.10;;
37867;SDS011;24011;48.880;9.190;2023-01-13T02:51:18;0.10;;;0.10;;
37867;SDS011;24011;48.880;9.190;2023-01-13T02:54:30;0.10;;;0.10;;
37867;SDS011;24011;48.880;9.190;2023-01-13T02:57:36;0.10;;;0.10;;
37867;SDS011;24011;48.880;9.190;2023-01-13T03:00:44;0.10;;;0.10;;
37867;SDS011;24011;48.880;9.190;2023-01-13T03:03:50;0.20;;;0.20;;
37867;SDS011;24011;48.880;9.190;2023-01-13T03:06:59;0.15;;;0.15;;
37867;SDS011;24011;48.880;9.190;2023-01-13T03:10:05;0.20;;;0.20;;
37867;SDS011;24011;48.880;9.190;2023-01-13T03:16:21;0.10;;;0.10;;
37867;SDS011;24011;48.880;9.190;2023-01-13T03:19:36;0.20;;;0.20;;
37867;SDS011;24011;48.880;9.190;2023-01-13T03:22:49;0.10;;;0.10;;
37867;SDS011;24011;48.880;9.190;2023-01-13T03:25:59;0.10;;;0.10;;
37867;SDS011;24011;48.880;9.190;2023-01-13T03:29:05;0.20;;;0.20;;
37867;SDS011;24011;48.880;9.190;2023-01-13T03:32:16;0.17;;;0.17;;
37867;SDS011;24011;48.880;9.190;2023-01-13T03:35:24;0.10;;;0.10;;
37867;SDS011;24011;48.880;9.190;2023-01-13T03:38:32;0.20;;;0.20;;
37867;SDS011;24011;48.880;9.190;2023-01-13T03:41:34;0.15;;;0.15;;
37867;SDS011;24011;48.880;9.190;2023-01-13T03:44:43;0.20;;;0.20;;
37867;SDS011;24011;48.880;9.190;2023-01-13T03:47:51;0.10;;;0.10;;
37867;SDS011;24011;48.880;9.190;2023-01-13T03:51:20;0.13;;;0.13;;
37867;SDS011;24011;48.880;9.190;2023-01-13T03:54:46;0.10;;;0.10;;
37867;SDS011;24011;48.880;9.190;2023-01-13T03:58:22;0.10;;;0.10;;
37867;SDS011;24011;48.880;9.190;2023-01-13T04:01:47;0.20;;;0.20;;
37867;SDS011;24011;48.880;9.190;2023-01-13T04:05:26;0.10;;;0.10;;
37867;SDS011;24011;48.880;9.190;2023-01-13T04:12:29;0.10;;;0.10;;
37867;SDS011;24011;48.880;9.190;2023-01-13T04:15:50;0.10;;;0.10;;
37867;SDS011;24011;48.880;9.190;2023-01-13T04:19:15;0.20;;;0.20;;
37867;SDS011;24011;48.880;9.190;2023-01-13T04:22:22;0.10;;;0.10;;
37867;SDS011;24011;48.880;9.190;2023-01-13T04:25:55;0.20;;;0.20;;
37867;SDS011;24011;48.880;9.190;2023-01-13T04:29:16;0.10;;;0.10;;
37867;SDS011;24011;48.880;9.190;2023-01-13T04:32:47;0.10;;;0.10;;
37867;SDS011;24011;48.880;9.190;2023-01-13T04:36:08;0.20;;;0.20;;
37867;SDS011;24011;48.880;9.190;2023-01-13T04:39:45;0.10;;;0.10;;
37867;SDS011;24011;48.880;9.190;2023-01-13T04:43:27;0.22;;;0.22;;
37867;SDS011;24011;48.880;9.190;2023-01-13T04:46:57;0.10;;;0.10;;
37867;SDS011;24011;48.880;9.190;2023-01-13T04:50:21;0.10;;;0.10;;
37867;SDS011;24011;48.880;9.190;2023-01-13T04:53:56;0.13;;;0.13;;
37867;SDS011;24011;48.880;9.190;2023-01-13T04:57:45;0.10;;;0.10;;
37867;SDS011;24011;48.880;9.190;2023-01-13T05:05:15;0.10;;;0.10;;
37867;SDS011;24011;48.880;9.190;2023-01-13T05:08:55;0.10;;;0.10;;
37867;SDS011;24011;48.880;9.190;2023-01-13T05:12:21;0.93;;;0.20;;
37867;SDS011;24011;48.880;9.190;2023-01-13T05:15:51;0.10;;;0.10;;
37867;SDS011;24011;48.880;9.190;2023-01-13T05:19:25;0.10;;;0.10;;
37867;SDS011;24011;48.880;9.190;2023-01-13T05:22:57;0.20;;;0.13;;
37867;SDS011;24011;48.880;9.190;2023-01-13T05:26:25;0.47;;;0.20;;
37867;SDS011;24011;48.880;9.190;2023-01-13T07:18:26;0.10;;;0.10;;
37867;SDS011;24011;48.880;9.190;2023-01-13T07:21:38;0.15;;;0.15;;
37867;SDS011;24011;48.880;9.190;2023-01-13T07:24:16;0.10;;;0.10;;
37867;SDS011;24011;48.880;9.190;2023-01-13T07:27:18;0.10;;;0.10;;
37867;SDS011;24011;48.880;9.190;2023-01-13T07:30:27;0.20;;;0.20;;
37867;SDS011;24011;48.880;9.190;2023-01-13T07:39:53;0.73;;;0.15;;
37867;SDS011;24011;48.880;9.190;2023-01-13T07:42:38;0.20;;;0.20;;
37867;SDS011;24011;48.880;9.190;2023-01-13T08:06:13;0.77;;;0.20;;
37867;SDS011;24011;48.880;9.190;2023-01-13T08:09:42;1.45;;;0.20;;
37867;SDS011;24011;48.880;9.190;2023-01-13T08:29:02;1.27;;;0.20;;
37867;SDS011;24011;48.880;9.190;2023-01-13T08:32:43;1.27;;;0.10;;
37867;SDS011;24011;48.880;9.190;2023-01-13T08:36:12;0.70;;;0.20;;
37867;SDS011;24011;48.880;9.190;2023-01-13T09:13:15;0.98;;;0.20;;
37867;SDS011;24011;48.880;9.190;2023-01-13T09:28:36;0.55;;;0.10;;
37867;SDS011;24011;48.880;9.190;2023-01-13T09:32:41;0.20;;;0.20;;
37867;SDS011;24011;48.880;9.190;2023-01-13T09:40:51;0.10;;;0.10;;
37867;SDS011;24011;48.880;9.190;2023-01-13T10:49:31;0.40;;;0.20;;
37867;SDS011;24011;48.880;9.190;2023-01-13T10:56:15;0.30;;;0.20;;
37867;SDS011;24011;48.880;9.190;2023-01-13T10:59:02;0.20;;;0.20;;
37867;SDS011;24011;48.880;9.190;2023-01-13T11:07:30;0.20;;;0.20;;
37867;SDS011;24011;48.880;9.190;2023-01-13T11:10:25;0.20;;;0.20;;
37867;SDS011;24011;48.880;9.190;2023-01-13T11:17:25;0.20;;;0.20;;
37867;SDS011;24011;48.880;9.190;2023-01-13T11:20:44;0.10;;;0.10;;
37867;SDS011;24011;48.880;9.190;2023-01-13T12:55:16;0.20;;;0.20;;
37867;SDS011;24011;48.880;9.190;2023-01-13T13:11:57;0.40;;;0.30;;
37867;SDS011;24011;48.880;9.190;2023-01-13T13:15:22;1.77;;;0.20;;
37867;SDS011;24011;48.880;9.190;2023-01-13T13:18:27;0.20;;;0.20;;
37867;SDS011;24011;48.880;9.190;2023-01-13T13:28:25;0.22;;;0.22;;
37867;SDS011;24011;48.880;9.190;2023-01-13T13:31:47;0.20;;;0.20;;
37867;SDS011;24011;48.880;9.190;2023-01-13T13:34:51;0.20;;;0.20;;
37867;SDS011;24011;48.880;9.190;2023-01-13T13:38:22;0.30;;;0.30;;
37867;SDS011;24011;48.880;9.190;2023-01-13T13:42:08;0.30;;;0.30;;
37867;SDS011;24011;48.880;9.190;2023-01-13T13:45:32;0.28;;;0.28;;
37867;SDS011;24011;48.880;9.190;2023-01-13T13:48:51;0.40;;;0.40;;
37867;SDS011;24011;48.880;9.190;2023-01-13T13:51:38;0.50;;;0.50;;
37867;SDS011;24011;48.880;9.190;2023-01-13T13:54:26;0.32;;;0.30;;
37867;SDS011;24011;48.880;9.190;2023-01-13T13:57:15;0.40;;;0.40;;
37867;SDS011;24011;48.880;9.190;2023-01-13T14:00:20;0.20;;;0.20;;
37867;SDS011;24011;48.880;9.190;2023-01-13T14:03:29;0.30;;;0.30;;
37867;SDS011;24011;48.880;9.190;2023-01-13T14:06:25;0.30;;;0.22;;
37867;SDS011;24011;48.880;9.190;2023-01-13T14:09:15;0.43;;;0.43;;
37867;SDS011;24011;48.880;9.190;2023-01-13T14:12:01;0.35;;;0.35;;
37867;SDS011;24011;48.880;9.190;2023-01-13T14:14:55;0.10;;;0.10;;
37867;SDS011;24011;48.880;9.190;2023-01-13T14:17:44;0.20;;;0.20;;
37867;SDS011;24011;48.880;9.190;2023-01-13T14:20:33;0.20;;;0.20;;
37867;SDS011;24011;48.880;9.190;2023-01-13T14:23:22;0.30;;;0.30;;
37867;SDS011;24011;48.880;9.190;2023-01-13T14:26:16;0.30;;;0.30;;
37867;SDS011;24011;48.880;9.190;2023-01-13T14:29:17;0.20;;;0.20;;
37867;SDS011;24011;48.880;9.190;2023-01-13T14:32:02;0.20;;;0.20;;
37867;SDS011;24011;48.880;9.190;2023-01-13T14:35:16;0.28;;;0.20;;
37867;SDS011;24011;48.880;9.190;2023-01-13T14:38:03;0.38;;;0.38;;
37867;SDS011;24011;48.880;9.190;2023-01-13T14:40:54;0.10;;;0.10;;
37867;SDS011;24011;48.880;9.190;2023-01-13T14:43:50;0.20;;;0.20;;
37867;SDS011;24011;48.880;9.190;2023-01-13T14:46:52;0.40;;;0.40;;
37867;SDS011;24011;48.880;9.190;2023-01-13T14:49:43;0.20;;;0.20;;
37867;SDS011;24011;48.880;9.190;2023-01-13T14:52:49;0.20;;;0.20;;
37867;SDS011;24011;48.880;9.190;2023-01-13T14:55:46;0.20;;;0.20;;
37867;SDS011;24011;48.880;9.190;2023-01-13T14:58:32;0.20;;;0.20;;
37867;SDS011;24011;48.880;9.190;2023-01-13T15:01:44;0.20;;;0.20;;
37867;SDS011;24011;48.880;9.190;2023-01-13T15:08:38;0.30;;;0.30;;
37867;SDS011;24011;48.880;9.190;2023-01-13T15:11:49;0.32;;;0.20;;
37867;SDS011;24011;48.880;9.190;2023-01-13T15:15:02;0.20;;;0.20;;
37867;SDS011;24011;48.880;9.190;2023-01-13T15:18:26;0.30;;;0.30;;
37867;SDS011;24011;48.880;9.190;2023-01-13T15:21:26;0.10;;;0.10;;
37867;SDS011;24011;48.880;9.190;2023-01-13T15:24:26;0.20;;;0.20;;
37867;SDS011;24011;48.880;9.190;2023-01-13T15:27:37;0.30;;;0.30;;
37867;SDS011;24011;48.880;9.190;2023-01-13T15:30:28;0.20;;;0.20;;
37867;SDS011;24011;48.880;9.190;2023-01-13T15:33:26;0.10;;;0.10;;
37867;SDS011;24011;48.880;9.190;2023-01-13T15:36:43;0.10;;;0.10;;
37867;SDS011;24011;48.880;9.190;2023-01-13T15:39:50;0.25;;;0.25;;
37867;SDS011;24011;48.880;9.190;2023-01-13T15:43:02;0.10;;;0.10;;
37867;SDS011;24011;48.880;9.190;2023-01-13T15:46:14;0.20;;;0.20;;
37867;SDS011;24011;48.880;9.190;2023-01-13T15:49:39;0.20;;;0.20;;
37867;SDS011;24011;48.880;9.190;2023-01-13T15:52:32;0.10;;;0.10;;
37867;SDS011;24011;48.880;9.190;2023-01-13T15:55:34;0.20;;;0.20;;
37867;SDS011;24011;48.880;9.190;2023-01-13T15:58:33;0.20;;;0.20;;
37867;SDS011;24011;48.880;9.190;2023-01-13T16:01:26;0.25;;;0.25;;
37867;SDS011;24011;48.880;9.190;2023-01-13T16:04:09;0.20;;;0.20;;
37867;SDS011;24011;48.880;9.190;2023-01-13T16:06:57;0.15;;;0.15;;
37867;SDS011;24011;48.880;9.190;2023-01-13T16:10:01;0.20;;;0.20;;
37867;SDS011;24011;48.880;9.190;2023-01-13T16:13:02;0.20;;;0.20;;
37867;SDS011;24011;48.880;9.190;2023-01-13T16:16:20;0.30;;;0.25;;
37867;SDS011;24011;48.880;9.190;2023-01-13T16:19:20;0.20;;;0.20;;
37867;SDS011;24011;48.880;9.190;2023-01-13T16:22:26;0.20;;;0.20;;
37867;SDS011;24011;48.880;9.190;2023-01-13T16:25:32;0.25;;;0.25;;
37867;SDS011;24011;48.880;9.190;2023-01-13T16:28:36;0.20;;;0.20;;
37867;SDS011;24011;48.880;9.190;2023-01-13T16:31:44;0.20;;;0.20;;
37867;SDS011;24011;48.880;9.190;2023-01-13T16:37:33;0.30;;;0.30;;
37867;SDS011;24011;48.880;9.190;2023-01-13T16:40:38;0.20;;;0.20;;
37867;SDS011;24011;48.880;9.190;2023-01-13T16:43:44;0.28;;;0.28;;
37867;SDS011;24011;48.880;9.190;2023-01-13T16:46:56;0.25;;;0.25;;
37867;SDS011;24011;48.880;9.190;2023-01-13T16:50:02;0.25;;;0.25;;
37867;SDS011;24011;48.880;9.190;2023-01-13T16:52:51;0.30;;;0.30;;
37867;SDS011;24011;48.880;9.190;2023-01-13T16:55:44;0.22;;;0.22;;
37867;SDS011;24011;48.880;9.190;2023-01-13T16:58:51;0.20;;;0.20;;
37867;SDS011;24011;48.880;9.190;2023-01-13T17:02:02;0.20;;;0.20;;
37867;SDS011;24011;48.880;9.190;2023-01-13T17:05:15;0.30;;;0.30;;
37867;SDS011;24011;48.880;9.190;2023-01-13T17:08:03;0.22;;;0.22;;
37867;SDS011;24011;48.880;9.190;2023-01-13T17:11:15;0.40;;;0.40;;
37867;SDS011;24011;48.880;9.190;2023-01-13T17:14:03;0.30;;;0.30;;
37867;SDS011;24011;48.880;9.190;2023-01-13T17:17:22;0.40;;;0.40;;
37867;SDS011;24011;48.880;9.190;2023-01-13T17:20:15;0.40;;;0.40;;
37867;SDS011;24011;48.880;9.190;2023-01-13T17:23:09;0.20;;;0.20;;
37867;SDS011;24011;48.880;9.190;2023-01-13T17:26:15;0.20;;;0.20;;
37867;SDS011;24011;48.880;9.190;2023-01-13T17:29:31;0.47;;;0.47;;
37867;SDS011;24011;48.880;9.190;2023-01-13T17:32:45;0.40;;;0.40;;
37867;SDS011;24011;48.880;9.190;2023-01-13T17:35:51;0.50;;;0.50;;
37867;SDS011;24011;48.880;9.190;2023-01-13T17:38:57;0.50;;;0.50;;
37867;SDS011;24011;48.880;9.190;2023-01-13T17:42:03;0.35;;;0.35;;
37867;SDS011;24011;48.880;9.190;2023-01-13T17:45:07;0.50;;;0.50;;
37867;SDS011;24011;48.880;9.190;2023-01-13T17:48:43;0.40;;;0.35;;
37867;SDS011;24011;48.880;9.190;2023-01-13T17:52:03;0.45;;;0.45;;
37867;SDS011;24011;48.880;9.190;2023-01-13T17:55:33;0.30;;;0.30;;
37867;SDS011;24011;48.880;9.190;2023-01-13T17:59:03;0.30;;;0.30;;
37867;SDS011;24011;48.880;9.190;2023-01-13T18:02:33;0.30;;;0.30;;
37867;SDS011;24011;48.880;9.190;2023-01-13T18:09:39;0.32;;;0.32;;
37867;SDS011;24011;48.880;9.190;2023-01-13T18:13:03;0.30;;;0.30;;
37867;SDS011;24011;48.880;9.190;2023-01-13T18:16:33;0.40;;;0.40;;
37867;SDS011;24011;48.880;9.190;2023-01-13T18:19:57;0.47;;;0.40;;
37867;SDS011;24011;48.880;9.190;2023-01-13T18:23:43;0.40;;;0.40;;
37867;SDS011;24011;48.880;9.190;2023-01-13T18:27:01;0.40;;;0.40;;
37867;SDS011;24011;48.880;9.190;2023-01-13T18:30:25;0.30;;;0.30;;
37867;SDS011;24011;48.880;9.190;2023-01-13T18:33:49;0.40;;;0.40;;
37867;SDS011;24011;48.880;9.190;2023-01-13T18:37:19;0.40;;;0.40;;
37867;SDS011;24011;48.880;9.190;2023-01-13T18:40:49;0.55;;;0.50;;
37867;SDS011;24011;48.880;9.190;2023-01-13T18:44:39;0.40;;;0.40;;
37867;SDS011;24011;48.880;9.190;2023-01-13T18:48:03;0.30;;;0.30;;
37867;SDS011;24011;48.880;9.190;2023-01-13T18:51:33;0.30;;;0.30;;
37867;SDS011;24011;48.880;9.190;2023-01-13T18:54:57;0.30;;;0.30;;
37867;SDS011;24011;48.880;9.190;2023-01-13T19:30:26;0.40;;;0.40;;
37867;SDS011;24011;48.880;9.190;2023-01-13T19:33:50;0.70;;;0.35;;
37867;SDS011;24011;48.880;9.190;2023-01-13T19:37:26;0.35;;;0.35;;
37867;SDS011;24011;48.880;9.190;2023-01-13T19:40:57;0.52;;;0.45;;
37867;SDS011;24011;48.880;9.190;2023-01-13T19:44:26;0.40;;;0.40;;
37867;SDS011;24011;48.880;9.190;2023-01-13T19:48:09;0.30;;;0.30;;
37867;SDS011;24011;48.880;9.190;2023-01-13T19:51:38;0.30;;;0.30;;
37867;SDS011;24011;48.880;9.190;2023-01-13T19:54:44;0.40;;;0.40;;
37867;SDS011;24011;48.880;9.190;2023-01-13T19:58:03;0.28;;;0.28;;
37867;SDS011;24011;48.880;9.190;2023-01-13T20:01:39;0.43;;;0.40;;
37867;SDS011;24011;48.880;9.190;2023-01-13T20:13:58;0.40;;;0.40;;
37867;SDS011;24011;48.880;9.190;2023-01-13T20:17:52;0.28;;;0.28;;
37867;SDS011;24011;48.880;9.190;2023-01-13T20:22:04;0.40;;;0.40;;
37867;SDS011;24011;48.880;9.190;2023-01-13T20:26:05;0.28;;;0.28;;
37867;SDS011;24011;48.880;9.190;2023-01-13T20:33:52;0.40;;;0.30;;
37867;SDS011;24011;48.880;9.190;2023-01-13T20:38:28;0.30;;;0.20;;
37867;SDS011;24011;48.880;9.190;2023-01-13T20:43:10;0.35;;;0.35;;
37867;SDS011;24011;48.880;9.190;2023-01-13T20:55:40;0.30;;;0.30;;
37867;SDS011;24011;48.880;9.190;2023-01-13T20:59:08;0.40;;;0.40;;
37867;SDS011;24011;48.880;9.190;2023-01-13T21:02:29;0.40;;;0.40;;
37867;SDS011;24011;48.880;9.190;2023-01-13T21:05:43;0.40;;;0.40;;
37867;SDS011;24011;48.880;9.190;2023-01-13T21:12:02;0.30;;;0.30;;
37867;SDS011;24011;48.880;9.190;2023-01-13T21:15:14;1.13;;;0.50;;
37867;SDS011;24011;48.880;9.190;2023-01-13T21:18:20;0.55;;;0.30;;
37867;SDS011;24011;48.880;9.190;2023-01-13T21:21:28;0.57;;;0.30;;
37867;SDS011;24011;48.880;9.190;2023-01-13T21:24:38;0.40;;;0.40;;
37867;SDS011;24011;48.880;9.190;2023-01-13T21:27:51;0.35;;;0.35;;
37867;SDS011;24011;48.880;9.190;2023-01-13T21:30:56;0.45;;;0.40;;
37867;SDS011;24011;48.880;9.190;2023-01-13T21:34:02;0.30;;;0.30;;
37867;SDS011;24011;48.880;9.190;2023-01-13T21:37:08;0.40;;;0.40;;
37867;SDS011;24011;48.880;9.190;2023-01-13T21:40:13;0.30;;;0.30;;
37867;SDS011;24011;48.880;9.190;2023-01-13T21:43:26;0.50;;;0.40;;
37867;SDS011;24011;48.880;9.190;2023-01-13T21:46:37;0.25;;;0.22;;
37867;SDS011;24011;48.880;9.190;2023-01-13T21:49:49;0.50;;;0.45;;
37867;SDS011;24011;48.880;9.190;2023-01-13T21:52:50;0.40;;;0.40;;
37867;SDS011;24011;48.880;9.190;2023-01-13T21:55:56;0.50;;;0.38;;
37867;SDS011;24011;48.880;9.190;2023-01-13T21:59:07;0.25;;;0.25;;
37867;SDS011;24011;48.880;9.190;2023-01-13T22:05:23;0.40;;;0.40;;
37867;SDS011;24011;48.880;9.190;2023-01-13T22:08:26;0.30;;;0.30;;
37867;SDS011;24011;48.880;9.190;2023-01-13T22:11:31;0.20;;;0.20;;
37867;SDS011;24011;48.880;9.190;2023-01-13T22:14:37;0.40;;;0.30;;
37867;SDS011;24011;48.880;9.190;2023-01-13T22:17:43;0.28;;;0.28;;
37867;SDS011;24011;48.880;9.190;2023-01-13T22:20:50;0.55;;;0.50;;
37867;SDS011;24011;48.880;9.190;2023-01-13T22:23:56;0.28;;;0.28;;
37867;SDS011;24011;48.880;9.190;2023-01-13T22:27:08;0.20;;;0.20;;
37867;SDS011;24011;48.880;9.190;2023-01-13T22:30:19;0.32;;;0.32;;
37867;SDS011;24011;48.880;9.190;2023-01-13T22:33:26;0.30;;;0.30;;
37867;SDS011;24011;48.880;9.190;2023-01-13T22:36:32;0.35;;;0.13;;
37867;SDS011;24011;48.880;9.190;2023-01-13T22:39:38;0.20;;;0.20;;
37867;SDS011;24011;48.880;9.190;2023-01-13T22:42:44;0.40;;;0.40;;
37867;SDS011;24011;48.880;9.190;2023-01-13T22:46:04;0.40;;;0.40;;
37867;SDS011;24011;48.880;9.190;2023-01-13T22:49:09;0.20;;;0.20;;
37867;SDS011;24011;48.880;9.190;2023-01-13T22:52:21;0.20;;;0.20;;
37867;SDS011;24011;48.880;9.190;2023-01-13T22:55:27;0.30;;;0.30;;
37867;SDS011;24011;48.880;9.190;2023-01-13T22:58:32;0.38;;;0.38;;
37867;SDS011;24011;48.880;9.190;2023-01-13T23:01:44;0.20;;;0.20;;
37867;SDS011;24011;48.880;9.190;2023-01-13T23:04:53;0.32;;;0.32;;
37867;SDS011;24011;48.880;9.190;2023-01-13T23:08:08;0.40;;;0.40;;
37867;SDS011;24011;48.880;9.190;2023-01-13T23:11:17;0.32;;;0.32;;
37867;SDS011;24011;48.880;9.190;2023-01-13T23:14:20;0.32;;;0.32;;
37867;SDS011;24011;48.880;9.190;2023-01-13T23:17:33;0.20;;;0.20;;
37867;SDS011;24011;48.880;9.190;2023-01-13T23:20:44;0.30;;;0.30;;
37867;SDS011;24011;48.880;9.190;2023-01-13T23:23:51;0.30;;;0.30;;
37867;SDS011;24011;48.880;9.190;2023-01-13T23:26:57;0.22;;;0.22;;
37867;SDS011;24011;48.880;9.190;2023-01-13T23:30:08;0.30;;;0.30;;
37867;SDS011;24011;48.880;9.190;2023-01-13T23:33:45;0.52;;;0.43;;
37867;SDS011;24011;48.880;9.190;2023-01-13T23:37:14;0.32;;;0.30;;
37867;SDS011;24011;48.880;9.190;2023-01-13T23:41:03;0.30;;;0.30;;
37867;SDS011;24011;48.880;9.190;2023-01-13T23:44:50;0.30;;;0.30;;
37867;SDS011;24011;48.880;9.190;2023-01-13T23:48:27;0.50;;;0.50;;
37867;SDS011;24011;48.880;9.190;2023-01-13T23:52:02;0.93;;;0.30;;
37867;SDS011;24011;48.880;9.190;2023-01-13T23:55:21;0.20;;;0.20;;
37867;SDS011;24011;48.880;9.190;2023-01-13T23:59:03;0.22;;;0.22;;
